Main page

Airports :

Liège, Belgium

Liège Airport

latitude: 50-39N, longitude: 005-27E, elevation: 186 m

Current weather observation

The report was made 27 minutes ago, at 17:20 UTC
Wind 7 kt from the Northeast
Temperature 6°C
Humidity 87%
Pressure 1014 hPa
Visibility: 6000 m
Few clouds at a height of 3500 ft

METAR: EBLG 221720Z 05007KT 6000 FEW035 06/04 Q1014 BECMG 4500 BR

Time: 19:47 (17:47 UTC)


The report was made 47 minutes ago, at 17:00 UTC
Forecast valid from 22 at 18 UTC to 23 at 24 UTC
Wind 2 kt from the East
Visibility: 7000 m
Few clouds at a height of 2000 ft
from 23 at 00 UTC to 23 at 03 UTC
Visibility: 3000 m
Probability 30% :
from 23 at 03 UTC to 23 at 08 UTC
Visibility: 0200 m
at a height of 100 ft
from 23 at 08 UTC to 23 at 10 UTC
Visibility: 7000 m

TAF: EBLG 221700Z 2218/2324 09002KT 7000 FEW020 BECMG 2300/2303 3000 BR PROB30 TEMPO 2303/2308 0200 FG VV001 BECMG 2308/2310 7000 NSW


Weather observations and forecasts of more than 4000 airports (METAR and TAF reports).

The available stations are represented by yellow and red dots on the map.

Hover mouse over dot to see the name of the station.

Then click to see weather observations and forecasts.

To change the map : click on the green buttons with a black cross to zoom in, on the green button with a dash to zoom out, or on the green arrows for adjacent maps.